createdAt,value
2018-02-19T00:01:55.995Z,118.87
2018-02-19T00:04:23.577Z,116.37
2018-02-19T00:06:51.127Z,114.67
2018-02-19T00:09:18.893Z,116.17
2018-02-19T00:11:46.618Z,124.43
2018-02-19T00:14:14.212Z,136.80
2018-02-19T00:16:41.803Z,137.23
2018-02-19T00:19:09.359Z,132.60
2018-02-19T00:21:36.965Z,121.40
2018-02-19T00:24:04.523Z,127.77
2018-02-19T00:26:32.083Z,129.47
2018-02-19T00:28:59.682Z,128.10
2018-02-19T00:31:27.224Z,136.07
2018-02-19T00:33:54.781Z,138.73
2018-02-19T00:36:22.374Z,137.27
2018-02-19T00:38:49.921Z,134.93
2018-02-19T00:41:17.678Z,132.33
2018-02-19T00:43:45.264Z,127.23
2018-02-19T00:46:12.807Z,130.13
2018-02-19T00:48:40.403Z,125.17
2018-02-19T00:51:07.994Z,125.33
2018-02-19T00:53:35.582Z,125.50
2018-02-19T00:56:03.139Z,127.50
2018-02-19T00:58:30.723Z,124.80
2018-02-19T01:00:58.311Z,122.10
2018-02-19T01:03:25.910Z,119.20
2018-02-19T01:05:53.454Z,122.23
2018-02-19T01:08:21.060Z,121.33
2018-02-19T01:10:48.659Z,122.27
2018-02-19T01:13:16.762Z,124.70
2018-02-19T01:15:45.124Z,120.90
2018-02-19T01:18:12.711Z,121.60
2018-02-19T01:20:40.296Z,126.97
2018-02-19T01:23:07.887Z,130.13
2018-02-19T01:25:35.430Z,131.73
2018-02-19T01:28:03.022Z,128.50
2018-02-19T01:30:30.570Z,125.60
2018-02-19T01:32:58.451Z,128.50
2018-02-19T01:35:26.390Z,125.77
2018-02-19T01:37:53.987Z,124.93
2018-02-19T01:40:22.045Z,128.50
2018-02-19T01:42:49.639Z,128.87
2018-02-19T01:45:17.174Z,126.63
2018-02-19T01:47:44.770Z,127.27
2018-02-19T01:50:16.202Z,131.97
2018-02-19T01:52:43.751Z,132.77
2018-02-19T01:55:11.334Z,131.27
2018-02-19T01:57:38.891Z,134.23
2018-02-19T02:00:06.471Z,132.50
2018-02-19T02:02:34.032Z,135.13
2018-02-19T02:05:01.963Z,131.90
2018-02-19T02:07:29.516Z,132.77
2018-02-19T02:09:57.110Z,132.40
2018-02-19T02:12:24.654Z,132.47
2018-02-19T02:14:52.463Z,135.20
2018-02-19T02:17:20.063Z,135.20
2018-02-19T02:19:47.610Z,138.90
2018-02-19T02:22:15.222Z,136.33
2018-02-19T02:24:42.822Z,137.97
2018-02-19T02:27:10.375Z,129.43
2018-02-19T02:29:37.928Z,132.00
2018-02-19T02:32:05.896Z,134.20
2018-02-19T02:34:33.435Z,129.73
2018-02-19T02:37:01.022Z,129.63
2018-02-19T02:39:28.576Z,128.20
2018-02-19T02:41:56.135Z,128.00
2018-02-19T02:44:23.733Z,126.00
2018-02-19T02:46:51.299Z,130.77
2018-02-19T02:49:18.894Z,127.60
2018-02-19T02:51:46.846Z,125.43
2018-02-19T02:54:14.390Z,119.23
2018-02-19T02:56:41.979Z,121.20
2018-02-19T02:59:09.551Z,119.33
2018-02-19T03:01:37.098Z,119.03
2018-02-19T03:04:04.690Z,118.97
2018-02-19T03:06:32.393Z,119.67
2018-02-19T03:08:59.944Z,116.40
2018-02-19T03:11:27.532Z,114.93
2018-02-19T03:13:55.118Z,113.30
2018-02-19T03:16:22.658Z,115.67
2018-02-19T03:18:50.316Z,118.40
2018-02-19T03:21:17.858Z,113.40
2018-02-19T03:23:45.408Z,116.07
2018-02-19T03:26:13.127Z,109.60
2018-02-19T03:28:40.719Z,111.70
2018-02-19T03:31:08.306Z,101.77
2018-02-19T03:33:35.851Z,102.83
2018-02-19T03:36:03.439Z,102.30
2018-02-19T03:38:31.032Z,100.93
2018-02-19T03:40:58.580Z,92.60
2018-02-19T03:43:26.164Z,92.97
2018-02-19T03:45:53.745Z,94.00
2018-02-19T03:48:21.286Z,92.13
2018-02-19T03:50:48.825Z,92.23
2018-02-19T03:53:16.401Z,92.97
2018-02-19T03:55:43.939Z,89.87
2018-02-19T03:58:11.525Z,88.30
2018-02-19T04:00:39.101Z,90.10
2018-02-19T04:03:06.638Z,89.37
2018-02-19T04:05:34.229Z,87.33
2018-02-19T04:08:01.767Z,89.93
2018-02-19T04:10:29.364Z,87.60
2018-02-19T04:12:56.935Z,92.50
2018-02-19T04:15:24.494Z,90.20
2018-02-19T04:17:52.030Z,95.53
2018-02-19T04:20:19.640Z,92.70
2018-02-19T04:22:47.259Z,89.97
2018-02-19T04:25:14.855Z,92.17
2018-02-19T04:27:43.393Z,90.77
2018-02-19T04:30:11.461Z,94.67
2018-02-19T04:32:39.130Z,95.80
2018-02-19T04:35:06.716Z,95.43
2018-02-19T04:37:34.255Z,93.80
2018-02-19T04:40:01.906Z,91.23
2018-02-19T04:42:29.669Z,93.57
2018-02-19T04:45:00.843Z,93.97
2018-02-19T04:47:28.383Z,93.00
2018-02-19T04:49:55.936Z,93.80
2018-02-19T04:52:23.532Z,98.23
2018-02-19T04:54:51.563Z,100.90
2018-02-19T04:57:19.142Z,98.97
2018-02-19T04:59:46.718Z,99.50
2018-02-19T05:02:14.258Z,99.47
2018-02-19T05:04:41.847Z,101.60
2018-02-19T05:07:09.434Z,109.07
2018-02-19T05:09:37.014Z,109.90
2018-02-19T05:12:04.598Z,112.03
2018-02-19T05:14:32.160Z,115.23
2018-02-19T05:16:59.747Z,112.03
2018-02-19T05:19:27.303Z,111.10
2018-02-19T05:21:54.882Z,104.13
2018-02-19T05:24:22.439Z,107.17
2018-02-19T05:26:50.024Z,99.27
2018-02-19T05:29:17.638Z,103.20
2018-02-19T05:31:45.897Z,102.70
2018-02-19T05:34:13.439Z,102.57
2018-02-19T05:36:41.050Z,100.27
2018-02-19T05:39:08.668Z,112.25
2018-02-19T05:41:36.325Z,105.57
2018-02-19T05:44:03.911Z,110.97
2018-02-19T05:46:32.607Z,114.87
2018-02-19T05:49:00.157Z,123.33
2018-02-19T05:51:27.752Z,124.13
2018-02-19T05:53:55.307Z,134.27
2018-02-19T05:56:22.889Z,129.40
2018-02-19T05:58:50.427Z,121.20
2018-02-19T06:01:18.811Z,120.33
2018-02-19T06:03:46.820Z,115.63
2018-02-19T06:06:14.599Z,118.05
2018-02-19T06:08:42.150Z,133.75
2018-02-19T06:11:10.301Z,117.70
2018-02-19T06:13:43.041Z,119.85
2018-02-19T06:16:10.640Z,113.60
2018-02-19T06:18:38.212Z,116.43
2018-02-19T06:21:05.836Z,121.03
2018-02-19T06:23:33.398Z,127.60
2018-02-19T06:26:00.986Z,122.90
2018-02-19T06:28:28.602Z,121.60
2018-02-19T06:30:56.201Z,116.13
2018-02-19T06:33:23.738Z,114.47
2018-02-19T06:35:51.326Z,108.67
2018-02-19T06:38:19.199Z,122.82
2018-02-19T06:40:46.752Z,118.35
2018-02-19T06:43:14.340Z,103.77
2018-02-19T06:45:41.948Z,104.87
2018-02-19T06:48:09.527Z,117.00
2018-02-19T06:50:37.081Z,107.95
2018-02-19T06:53:04.700Z,98.93
2018-02-19T06:55:32.340Z,98.87
2018-02-19T06:57:59.922Z,98.97
2018-02-19T07:00:27.474Z,96.30
2018-02-19T07:02:55.078Z,95.50
2018-02-19T07:05:22.655Z,98.53
2018-02-19T07:07:50.260Z,92.43
2018-02-19T07:10:17.855Z,98.62
2018-02-19T07:12:45.485Z,97.55
2018-02-19T07:15:13.151Z,80.67
2018-02-19T07:17:40.856Z,93.22
2018-02-19T07:20:08.422Z,87.88
2018-02-19T07:22:36.297Z,76.37
2018-02-19T07:25:04.043Z,84.65
2018-02-19T07:27:31.599Z,73.93
2018-02-19T07:29:59.712Z,85.57
2018-02-19T07:32:27.341Z,70.30
2018-02-19T07:34:54.981Z,73.32
2018-02-19T07:37:23.102Z,71.03
2018-02-19T07:39:50.684Z,71.80
2018-02-19T07:42:18.306Z,68.10
2018-02-19T07:44:45.956Z,68.90
2018-02-19T07:47:13.571Z,72.77
2018-02-19T07:49:41.224Z,73.23
2018-02-19T07:52:08.775Z,81.25
2018-02-19T07:54:36.419Z,84.17
2018-02-19T07:57:04.950Z,87.77
2018-02-19T07:59:32.511Z,93.95
2018-02-19T08:02:00.109Z,77.07
2018-02-19T08:04:28.676Z,84.87
2018-02-19T08:06:56.263Z,88.05
2018-02-19T08:09:23.802Z,93.80
2018-02-19T08:11:51.492Z,94.13
2018-02-19T08:14:19.555Z,89.43
2018-02-19T08:16:49.233Z,96.28
2018-02-19T08:19:17.199Z,81.10
2018-02-19T08:21:44.739Z,79.13
2018-02-19T08:24:12.346Z,91.03
2018-02-19T08:26:39.901Z,79.43
2018-02-19T08:29:07.487Z,77.90
2018-02-19T08:31:35.385Z,74.47
2018-02-19T08:34:03.040Z,80.40
2018-02-19T08:36:30.683Z,79.00
2018-02-19T08:38:58.344Z,78.80
2018-02-19T08:41:25.943Z,86.20
2018-02-19T08:43:53.500Z,79.45
2018-02-19T08:46:21.099Z,84.72
2018-02-19T08:48:48.718Z,76.67
2018-02-19T08:51:17.868Z,76.57
2018-02-19T08:53:45.643Z,86.97
2018-02-19T08:56:13.207Z,94.47
2018-02-19T08:58:40.813Z,83.57
2018-02-19T09:01:08.389Z,76.73
2018-02-19T09:03:36.242Z,85.20
2018-02-19T09:06:04.871Z,76.63
2018-02-19T09:08:32.483Z,76.07
2018-02-19T09:11:00.108Z,72.97
2018-02-19T09:13:28.872Z,81.57
2018-02-19T09:15:56.704Z,76.10
2018-02-19T09:18:24.680Z,69.73
2018-02-19T09:20:52.235Z,71.80
2018-02-19T09:23:19.834Z,73.68
2018-02-19T09:25:47.774Z,76.65
2018-02-19T09:28:15.364Z,59.80
2018-02-19T09:30:43.565Z,64.07
2018-02-19T09:33:11.180Z,63.75
2018-02-19T09:35:38.819Z,64.97
2018-02-19T09:38:06.402Z,60.77
2018-02-19T09:40:34.065Z,60.13
2018-02-19T09:43:01.624Z,62.53
2018-02-19T09:45:29.420Z,57.13
2018-02-19T09:47:56.978Z,58.23
2018-02-19T09:50:26.630Z,57.60
2018-02-19T09:52:54.547Z,55.37
2018-02-19T09:55:22.103Z,49.63
2018-02-19T09:57:49.769Z,53.03
2018-02-19T10:00:17.340Z,45.70
2018-02-19T10:02:44.948Z,50.27
2018-02-19T10:05:12.598Z,48.13
2018-02-19T10:07:40.256Z,43.93
2018-02-19T10:10:08.820Z,43.37
2018-02-19T10:12:36.419Z,45.33
2018-02-19T10:15:04.015Z,43.73
2018-02-19T10:17:31.554Z,41.57
2018-02-19T10:19:59.119Z,42.67
2018-02-19T10:22:26.716Z,40.67
2018-02-19T10:24:54.260Z,38.97
2018-02-19T10:27:22.620Z,38.23
2018-02-19T10:29:50.203Z,37.40
2018-02-19T10:32:17.741Z,34.53
2018-02-19T10:34:45.326Z,33.77
2018-02-19T10:37:12.930Z,37.35
2018-02-19T10:39:40.563Z,34.47
2018-02-19T10:42:08.218Z,33.60
2018-02-19T10:44:35.843Z,32.30
2018-02-19T10:47:03.409Z,32.93
2018-02-19T10:49:30.975Z,31.20
2018-02-19T10:51:58.573Z,31.07
2018-02-19T10:54:26.188Z,34.25
2018-02-19T10:56:53.795Z,31.85
2018-02-19T10:59:21.376Z,33.35
2018-02-19T11:01:48.925Z,34.27
2018-02-19T11:04:16.637Z,35.30
2018-02-19T11:06:44.390Z,32.97
2018-02-19T11:09:12.733Z,31.57
2018-02-19T11:11:40.332Z,30.53
2018-02-19T11:14:07.933Z,33.45
2018-02-19T11:16:35.479Z,31.77
2018-02-19T11:19:03.030Z,29.23
2018-02-19T11:21:30.612Z,31.98
2018-02-19T11:23:58.154Z,29.63
2018-02-19T11:26:26.580Z,28.95
2018-02-19T11:28:54.168Z,29.30
2018-02-19T11:31:22.570Z,29.40
2018-02-19T11:33:50.147Z,27.27
2018-02-19T11:36:17.708Z,30.60
2018-02-19T11:38:55.272Z,28.07
2018-02-19T11:41:13.062Z,29.75
2018-02-19T11:43:40.664Z,28.30
2018-02-19T11:46:08.346Z,29.07
2018-02-19T11:48:35.969Z,27.83
2018-02-19T11:51:04.256Z,27.37
2018-02-19T11:53:31.805Z,26.30
2018-02-19T11:55:59.403Z,27.77
2018-02-19T11:58:27.026Z,26.33
2018-02-19T12:00:54.625Z,25.93
2018-02-19T12:03:22.174Z,28.45
2018-02-19T12:05:50.287Z,28.38
2018-02-19T12:08:18.654Z,25.33
2018-02-19T12:10:46.235Z,26.60
2018-02-19T12:13:13.820Z,26.33
2018-02-19T12:15:42.677Z,24.90
2018-02-19T12:18:10.277Z,27.40
2018-02-19T12:20:38.668Z,26.77
2018-02-19T12:23:06.258Z,23.43
2018-02-19T12:25:34.087Z,24.93
2018-02-19T12:28:01.635Z,25.60
2018-02-19T12:30:29.215Z,27.37
2018-02-19T12:32:56.815Z,22.87
2018-02-19T12:35:24.416Z,23.63
2018-02-19T12:37:52.007Z,26.23
2018-02-19T12:40:19.833Z,25.95
2018-02-19T12:42:47.421Z,22.67
2018-02-19T12:45:15.625Z,22.43
2018-02-19T12:47:43.453Z,23.73
2018-02-19T12:50:11.627Z,24.53
2018-02-19T12:52:39.219Z,24.35
2018-02-19T12:55:06.789Z,26.05
2018-02-19T12:57:34.398Z,27.13
2018-02-19T13:00:01.939Z,24.70
2018-02-19T13:02:29.517Z,25.30
2018-02-19T13:04:58.038Z,24.63
2018-02-19T13:07:25.728Z,26.07
2018-02-19T13:09:53.619Z,25.33
2018-02-19T13:12:21.212Z,23.73
2018-02-19T13:14:48.762Z,27.62
2018-02-19T13:17:17.306Z,24.80
2018-02-19T13:19:44.868Z,24.57
2018-02-19T13:22:12.465Z,24.83
2018-02-19T13:24:40.051Z,27.47
2018-02-19T13:27:08.220Z,23.47
2018-02-19T13:29:35.818Z,28.95
2018-02-19T13:32:04.306Z,28.42
2018-02-19T13:34:31.921Z,25.17
2018-02-19T13:36:59.524Z,25.80
2018-02-19T13:39:27.124Z,28.73
2018-02-19T13:41:54.675Z,28.93
2018-02-19T13:44:22.227Z,27.03
2018-02-19T13:46:50.349Z,26.70
2018-02-19T13:49:18.924Z,27.97
2018-02-19T13:51:47.449Z,28.52
2018-02-19T13:54:15.890Z,26.10
2018-02-19T13:56:44.462Z,30.30
2018-02-19T13:59:13.146Z,29.08
2018-02-19T14:01:43.561Z,25.87
2018-02-19T14:04:14.008Z,26.60
2018-02-19T14:06:42.334Z,26.40
2018-02-19T14:09:11.572Z,27.70
2018-02-19T14:11:39.971Z,28.12
2018-02-19T14:14:08.316Z,27.08
2018-02-19T14:16:35.903Z,27.17
2018-02-19T14:19:04.463Z,24.27
2018-02-19T14:21:32.003Z,23.33
2018-02-19T14:23:59.578Z,24.63
2018-02-19T14:26:27.824Z,26.30
2018-02-19T14:28:55.443Z,27.50
2018-02-19T14:31:22.995Z,27.17
2018-02-19T14:33:51.302Z,25.47
2018-02-19T14:36:19.114Z,26.90
2018-02-19T14:38:47.384Z,30.20
2018-02-19T14:41:14.976Z,25.43
2018-02-19T14:43:42.530Z,27.43
2018-02-19T14:46:11.010Z,28.57
2018-02-19T14:48:38.661Z,29.33
2018-02-19T14:51:06.506Z,27.47
2018-02-19T14:53:34.336Z,30.83
2018-02-19T14:56:02.806Z,29.20
2018-02-19T14:58:31.160Z,27.20
2018-02-19T15:00:58.694Z,26.20
2018-02-19T15:03:26.872Z,27.50
2018-02-19T15:05:54.490Z,28.87
2018-02-19T15:08:23.012Z,29.67
2018-02-19T15:10:50.594Z,26.07
2018-02-19T15:13:18.171Z,28.60
2018-02-19T15:15:45.715Z,31.80
2018-02-19T15:18:13.770Z,32.03
2018-02-19T15:20:41.309Z,28.47
2018-02-19T15:23:09.910Z,32.23
2018-02-19T15:25:39.399Z,31.93
2018-02-19T15:28:07.996Z,32.47
2018-02-19T15:30:37.034Z,34.83
2018-02-19T15:33:04.594Z,37.63
2018-02-19T15:35:32.147Z,38.17
2018-02-19T15:37:59.878Z,40.00
2018-02-19T15:40:28.101Z,33.93
2018-02-19T15:42:57.178Z,43.60
2018-02-19T15:45:24.805Z,42.20
2018-02-19T15:47:57.162Z,45.67
2018-02-19T15:50:25.749Z,46.23
2018-02-19T15:52:54.432Z,45.77
2018-02-19T15:55:23.700Z,45.43
2018-02-19T15:57:52.162Z,41.50
2018-02-19T16:00:20.218Z,39.97
2018-02-19T16:02:48.639Z,39.53
2018-02-19T16:05:16.200Z,40.20
2018-02-19T16:07:43.800Z,40.40
2018-02-19T16:10:13.108Z,38.23
2018-02-19T16:12:41.698Z,38.40
2018-02-19T16:15:10.168Z,36.87
2018-02-19T16:17:37.920Z,37.03
2018-02-19T16:20:06.471Z,36.63
2018-02-19T16:22:34.483Z,35.00
2018-02-19T16:25:02.014Z,34.50
2018-02-19T16:27:30.644Z,34.40
2018-02-19T16:29:59.956Z,30.83
2018-02-19T16:32:28.491Z,30.33
2018-02-19T16:34:57.326Z,30.30
2018-02-19T16:37:25.069Z,30.43
2018-02-19T16:39:53.315Z,27.20
2018-02-19T16:42:21.716Z,29.23
2018-02-19T16:44:49.462Z,27.53
2018-02-19T16:47:17.087Z,29.57
2018-02-19T16:49:44.629Z,29.00
2018-02-19T16:52:12.946Z,29.17
2018-02-19T16:54:40.496Z,28.47
2018-02-19T16:57:08.222Z,28.70
2018-02-19T16:59:35.780Z,25.80
2018-02-19T17:02:05.584Z,26.17
2018-02-19T17:04:34.098Z,25.70
2018-02-19T17:07:02.732Z,26.67
2018-02-19T17:09:31.597Z,24.53
2018-02-19T17:12:00.118Z,24.93
2018-02-19T17:14:29.773Z,23.77
2018-02-19T17:16:57.548Z,24.00
2018-02-19T17:19:26.170Z,23.20
2018-02-19T17:21:53.730Z,22.90
2018-02-19T17:24:21.995Z,23.07
2018-02-19T17:26:49.598Z,21.70
2018-02-19T17:29:17.219Z,21.10
2018-02-19T17:31:46.943Z,22.00
2018-02-19T17:34:14.526Z,21.10
2018-02-19T17:36:42.123Z,20.80
2018-02-19T17:39:10.015Z,21.00
2018-02-19T17:41:37.619Z,20.80
2018-02-19T17:44:06.470Z,20.90
2018-02-19T17:46:34.572Z,20.33
2018-02-19T17:49:03.011Z,20.27
2018-02-19T17:51:32.299Z,20.77
2018-02-19T17:54:03.166Z,21.10
2018-02-19T17:56:31.561Z,20.20
2018-02-19T17:58:59.120Z,18.87
2018-02-19T18:01:28.636Z,17.67
2018-02-19T18:03:56.548Z,19.40
2018-02-19T18:06:24.277Z,17.50
2018-02-19T18:08:51.896Z,19.53
2018-02-19T18:11:19.504Z,19.00
2018-02-19T18:13:47.738Z,19.10
2018-02-19T18:16:15.333Z,18.13
2018-02-19T18:18:43.837Z,18.40
2018-02-19T18:21:12.347Z,19.47
2018-02-19T18:23:39.896Z,19.60
2018-02-19T18:26:08.382Z,20.23
2018-02-19T18:28:35.936Z,24.07
2018-02-19T18:31:03.531Z,24.43
2018-02-19T18:33:31.088Z,25.03
2018-02-19T18:35:58.738Z,24.73
2018-02-19T18:38:27.107Z,23.90
2018-02-19T18:40:54.956Z,27.87
2018-02-19T18:43:22.555Z,28.77
2018-02-19T18:45:50.160Z,25.63
2018-02-19T18:48:17.712Z,25.60
2018-02-19T18:50:46.390Z,25.40
2018-02-19T18:53:14.734Z,24.77
2018-02-19T18:55:43.595Z,24.67
2018-02-19T18:58:11.536Z,24.23
2018-02-19T19:00:39.087Z,32.40
2018-02-19T19:03:07.440Z,32.50
2018-02-19T19:05:35.284Z,30.13
2018-02-19T19:08:14.575Z,34.73
2018-02-19T19:10:45.806Z,44.93
2018-02-19T19:13:13.384Z,39.47
2018-02-19T19:15:40.979Z,42.17
2018-02-19T19:18:08.527Z,39.17
2018-02-19T19:20:36.130Z,37.60
2018-02-19T19:23:04.672Z,35.37
2018-02-19T19:25:32.261Z,31.87
2018-02-19T19:27:59.805Z,27.07
2018-02-19T19:30:27.420Z,28.13
2018-02-19T19:32:55.270Z,26.33
2018-02-19T19:35:23.315Z,26.20
2018-02-19T19:37:50.864Z,24.93
2018-02-19T19:40:18.465Z,24.17
2018-02-19T19:42:46.053Z,24.43
2018-02-19T19:45:13.610Z,20.73
2018-02-19T19:47:42.032Z,20.67
2018-02-19T19:50:10.278Z,19.93
2018-02-19T19:52:38.153Z,20.13
2018-02-19T19:55:05.738Z,18.37
2018-02-19T19:57:33.303Z,16.57
2018-02-19T20:00:00.903Z,19.03
2018-02-19T20:02:28.459Z,17.07
2018-02-19T20:04:57.210Z,13.93
2018-02-19T20:07:24.814Z,15.70
2018-02-19T20:09:52.361Z,15.43
2018-02-19T20:12:20.232Z,14.87
2018-02-19T20:14:48.610Z,14.63
2018-02-19T20:17:16.845Z,14.20
2018-02-19T20:19:44.441Z,14.30
2018-02-19T20:22:12.040Z,14.20
2018-02-19T20:24:40.006Z,12.77
2018-02-19T20:27:07.763Z,13.77
2018-02-19T20:29:35.369Z,12.23
2018-02-19T20:32:03.232Z,12.43
2018-02-19T20:34:30.885Z,12.73
2018-02-19T20:36:58.784Z,12.40
2018-02-19T20:39:28.565Z,12.87
2018-02-19T20:41:56.184Z,11.20
2018-02-19T20:44:24.558Z,11.80
2018-02-19T20:46:52.140Z,11.67
2018-02-19T20:49:19.688Z,10.50
2018-02-19T20:51:48.335Z,9.87
2018-02-19T20:54:16.855Z,10.70
2018-02-19T20:56:44.790Z,10.87
2018-02-19T20:59:13.293Z,10.00
2018-02-19T21:01:40.837Z,10.47
2018-02-19T21:04:09.205Z,9.30
2018-02-19T21:06:36.809Z,9.30
2018-02-19T21:09:05.396Z,9.20
2018-02-19T21:11:33.375Z,8.67
2018-02-19T21:14:03.408Z,9.60
2018-02-19T21:16:30.996Z,8.83
2018-02-19T21:18:58.595Z,9.20
2018-02-19T21:21:26.183Z,9.90
2018-02-19T21:23:54.154Z,8.80
2018-02-19T21:26:22.294Z,9.10
2018-02-19T21:28:49.962Z,8.73
2018-02-19T21:31:17.502Z,8.83
2018-02-19T21:33:45.102Z,8.53
2018-02-19T21:36:13.107Z,8.60
2018-02-19T21:38:41.683Z,8.37
2018-02-19T21:41:09.252Z,7.93
2018-02-19T21:43:36.830Z,8.17
2018-02-19T21:46:04.423Z,8.17
2018-02-19T21:48:32.026Z,8.30
2018-02-19T21:50:59.783Z,8.77
2018-02-19T21:53:28.236Z,7.77
2018-02-19T21:55:55.788Z,8.20
2018-02-19T21:58:23.376Z,7.97
2018-02-19T22:00:51.439Z,8.03
2018-02-19T22:03:18.971Z,8.10
2018-02-19T22:05:46.563Z,7.83
2018-02-19T22:08:14.856Z,8.83
2018-02-19T22:10:42.671Z,7.50
2018-02-19T22:13:10.395Z,7.87
2018-02-19T22:15:37.984Z,8.07
2018-02-19T22:18:05.539Z,7.83
2018-02-19T22:20:33.160Z,7.23
2018-02-19T22:23:00.701Z,8.23
2018-02-19T22:25:28.284Z,8.13
2018-02-19T22:27:55.824Z,7.50
2018-02-19T22:30:23.416Z,9.50
2018-02-19T22:32:50.959Z,7.67
2018-02-19T22:35:18.497Z,8.37
2018-02-19T22:37:46.053Z,8.30
2018-02-19T22:40:13.588Z,8.20
2018-02-19T22:42:41.272Z,8.73
2018-02-19T22:45:08.971Z,8.30
2018-02-19T22:47:36.509Z,7.20
2018-02-19T22:50:04.046Z,8.50
2018-02-19T22:52:31.623Z,8.40
2018-02-19T22:54:59.216Z,8.47
2018-02-19T22:57:26.848Z,7.83
2018-02-19T22:59:54.430Z,8.77
2018-02-19T23:02:21.967Z,8.30
2018-02-19T23:04:49.510Z,8.17
2018-02-19T23:07:17.100Z,8.30
2018-02-19T23:09:44.630Z,8.53
2018-02-19T23:12:12.208Z,8.80
2018-02-19T23:14:40.572Z,8.67
2018-02-19T23:17:08.115Z,9.13
2018-02-19T23:19:36.001Z,8.53
2018-02-19T23:22:03.562Z,9.07
2018-02-19T23:24:31.138Z,8.57
2018-02-19T23:26:58.927Z,9.53
2018-02-19T23:29:26.519Z,9.37
2018-02-19T23:31:54.050Z,9.90
2018-02-19T23:34:21.586Z,9.53
2018-02-19T23:36:49.140Z,9.03
2018-02-19T23:39:16.745Z,10.03
2018-02-19T23:41:44.284Z,10.87
2018-02-19T23:44:11.830Z,11.20
2018-02-19T23:47:13.713Z,10.20
2018-02-19T23:50:04.450Z,10.07
2018-02-19T23:52:44.334Z,11.50
2018-02-19T23:55:11.894Z,11.07
2018-02-19T23:57:54.868Z,10.17
